DAL1210 KSLC-KSAN
Flight info
| Callsign | DAL1210 |
|---|---|
| Flight time | 1h 35m |
| Altitude | 34000 |
| Route | ARCHZ1 WINEN LAKRR Q73 LVELL LUCKI1 |
| Aircraft | A21N/M-SDE2E3FGHIRWXY/LB1 |
Departure
| Time | 2026-05-08 00:04 |
|---|---|
| Airport | Salt Lake City International Airport (KSLC) |
Arrival
| Time | 2026-05-08 01:40 |
|---|---|
| Airport | San Diego International Airport (KSAN) |
| Time | Latitude | Longitude | Altitude | Speed | Heading |
|---|---|---|---|---|---|
| 2026-05-07 23:52 | 40.78838 | -111.98613 | 4236 ft | 0 kts | 355° |
| 2026-05-07 23:54 | 40.78829 | -111.98612 | 4236 ft | 4 kts | 355° |
| 2026-05-07 23:54 | 40.78812 | -111.98610 | 4236 ft | 2 kts | 355° |
| 2026-05-07 23:54 | 40.78787 | -111.98598 | 4236 ft | 3 kts | 310° |
| 2026-05-07 23:54 | 40.78772 | -111.98575 | 4236 ft | 3 kts | 310° |
| 2026-05-07 23:55 | 40.78770 | -111.98572 | 4236 ft | 0 kts | 310° |
| 2026-05-07 23:57 | 40.78771 | -111.98574 | 4236 ft | 1 kts | 303° |
| 2026-05-07 23:58 | 40.78770 | -111.98606 | 4236 ft | 5 kts | 264° |
| 2026-05-07 23:58 | 40.78765 | -111.98659 | 4236 ft | 7 kts | 264° |
| 2026-05-07 23:58 | 40.78760 | -111.98730 | 4236 ft | 9 kts | 264° |
| 2026-05-07 23:58 | 40.78753 | -111.98824 | 4236 ft | 10 kts | 264° |
| 2026-05-07 23:59 | 40.78745 | -111.98929 | 4236 ft | 13 kts | 264° |
| 2026-05-07 23:59 | 40.78735 | -111.99054 | 4236 ft | 15 kts | 264° |
| 2026-05-07 23:59 | 40.78726 | -111.99196 | 4237 ft | 16 kts | 267° |
| 2026-05-07 23:59 | 40.78723 | -111.99355 | 4236 ft | 18 kts | 265° |
| 2026-05-08 00:00 | 40.78667 | -111.99459 | 4237 ft | 14 kts | 191° |
| 2026-05-08 00:00 | 40.78560 | -111.99454 | 4236 ft | 16 kts | 175° |
| 2026-05-08 00:00 | 40.78442 | -111.99440 | 4236 ft | 18 kts | 175° |
| 2026-05-08 00:00 | 40.78312 | -111.99425 | 4236 ft | 20 kts | 175° |
| 2026-05-08 00:01 | 40.78177 | -111.99409 | 4236 ft | 15 kts | 175° |
| 2026-05-08 00:01 | 40.78069 | -111.99419 | 4236 ft | 17 kts | 191° |
| 2026-05-08 00:01 | 40.77949 | -111.99435 | 4260 ft | 18 kts | 177° |
| 2026-05-08 00:01 | 40.77817 | -111.99421 | 4260 ft | 20 kts | 175° |
| 2026-05-08 00:02 | 40.77672 | -111.99404 | 4261 ft | 21 kts | 175° |
| 2026-05-08 00:02 | 40.77573 | -111.99393 | 4261 ft | 11 kts | 176° |
| 2026-05-08 00:02 | 40.77521 | -111.99458 | 4261 ft | 13 kts | 256° |
| 2026-05-08 00:02 | 40.77519 | -111.99537 | 4261 ft | 6 kts | 313° |
| 2026-05-08 00:03 | 40.77565 | -111.99554 | 4263 ft | 9 kts | 355° |
| 2026-05-08 00:03 | 40.77794 | -111.99582 | 4261 ft | 69 kts | 354° |
| 2026-05-08 00:03 | 40.78517 | -111.99666 | 4236 ft | 136 kts | 355° |
| 2026-05-08 00:03 | 40.79601 | -111.99796 | 4235 ft | 173 kts | 354° |
| 2026-05-08 00:04 | 40.80828 | -111.99930 | 4677 ft | 177 kts | 355° |
| 2026-05-08 00:04 | 40.82032 | -112.00310 | 5177 ft | 182 kts | 330° |
| 2026-05-08 00:04 | 40.82930 | -112.01509 | 5528 ft | 194 kts | 296° |
| 2026-05-08 00:04 | 40.83266 | -112.03296 | 5941 ft | 206 kts | 279° |
| 2026-05-08 00:05 | 40.83523 | -112.05206 | 6488 ft | 217 kts | 281° |
| 2026-05-08 00:05 | 40.83806 | -112.07216 | 6920 ft | 229 kts | 279° |
| 2026-05-08 00:05 | 40.83733 | -112.09377 | 7197 ft | 248 kts | 252° |
| 2026-05-08 00:05 | 40.82939 | -112.11437 | 7831 ft | 254 kts | 240° |
| 2026-05-08 00:06 | 40.81976 | -112.13406 | 8664 ft | 256 kts | 239° |
| 2026-05-08 00:06 | 40.81009 | -112.15384 | 9486 ft | 257 kts | 240° |
| 2026-05-08 00:06 | 40.80044 | -112.17396 | 10146 ft | 266 kts | 241° |
| 2026-05-08 00:06 | 40.79023 | -112.19554 | 10447 ft | 288 kts | 242° |
| 2026-05-08 00:07 | 40.77929 | -112.21888 | 10706 ft | 310 kts | 241° |
| 2026-05-08 00:07 | 40.76711 | -112.24361 | 10966 ft | 333 kts | 236° |
| 2026-05-08 00:07 | 40.75003 | -112.26571 | 11248 ft | 358 kts | 218° |
| 2026-05-08 00:07 | 40.72695 | -112.27983 | 11859 ft | 374 kts | 199° |
| 2026-05-08 00:08 | 40.70111 | -112.28600 | 12599 ft | 381 kts | 192° |
| 2026-05-08 00:08 | 40.67462 | -112.29072 | 13351 ft | 386 kts | 192° |
| 2026-05-08 00:08 | 40.64787 | -112.29558 | 14055 ft | 390 kts | 193° |
| 2026-05-08 00:08 | 40.62085 | -112.30081 | 14684 ft | 395 kts | 193° |
| 2026-05-08 00:09 | 40.59350 | -112.30626 | 15294 ft | 400 kts | 193° |
| 2026-05-08 00:09 | 40.56630 | -112.31214 | 15906 ft | 403 kts | 197° |
| 2026-05-08 00:09 | 40.53897 | -112.32219 | 16528 ft | 405 kts | 202° |
| 2026-05-08 00:09 | 40.51196 | -112.33338 | 17146 ft | 409 kts | 202° |
| 2026-05-08 00:10 | 40.48461 | -112.34470 | 17751 ft | 415 kts | 202° |
| 2026-05-08 00:10 | 40.45690 | -112.35599 | 18338 ft | 420 kts | 202° |
| 2026-05-08 00:10 | 40.42885 | -112.36742 | 18855 ft | 424 kts | 202° |
| 2026-05-08 00:10 | 40.40051 | -112.37900 | 19371 ft | 428 kts | 202° |
| 2026-05-08 00:11 | 40.37192 | -112.39070 | 19901 ft | 432 kts | 202° |
| 2026-05-08 00:11 | 40.34310 | -112.40249 | 20413 ft | 436 kts | 202° |
| 2026-05-08 00:11 | 40.31399 | -112.41437 | 20902 ft | 440 kts | 202° |
| 2026-05-08 00:11 | 40.28500 | -112.42615 | 21380 ft | 444 kts | 202° |
| 2026-05-08 00:12 | 40.25533 | -112.43819 | 21847 ft | 448 kts | 201° |
| 2026-05-08 00:12 | 40.22544 | -112.45031 | 22316 ft | 453 kts | 201° |
| 2026-05-08 00:12 | 40.19524 | -112.46270 | 22751 ft | 456 kts | 203° |
| 2026-05-08 00:12 | 40.16611 | -112.47903 | 23202 ft | 455 kts | 212° |
| 2026-05-08 00:13 | 40.13813 | -112.49861 | 23633 ft | 458 kts | 213° |
| 2026-05-08 00:13 | 40.11006 | -112.51863 | 24036 ft | 461 kts | 213° |
| 2026-05-08 00:13 | 40.08182 | -112.53868 | 24448 ft | 464 kts | 213° |
| 2026-05-08 00:13 | 40.05337 | -112.55874 | 24845 ft | 467 kts | 213° |
| 2026-05-08 00:14 | 40.02467 | -112.57888 | 25267 ft | 469 kts | 213° |
| 2026-05-08 00:14 | 39.99582 | -112.59908 | 25666 ft | 472 kts | 213° |
| 2026-05-08 00:14 | 39.96683 | -112.61944 | 26067 ft | 475 kts | 213° |
| 2026-05-08 00:14 | 39.93767 | -112.63989 | 26465 ft | 477 kts | 213° |
| 2026-05-08 00:15 | 39.90835 | -112.66040 | 26820 ft | 480 kts | 213° |
| 2026-05-08 00:15 | 39.87878 | -112.68105 | 27150 ft | 483 kts | 213° |
| 2026-05-08 00:15 | 39.84913 | -112.70173 | 27519 ft | 485 kts | 213° |
| 2026-05-08 00:15 | 39.81941 | -112.72243 | 27961 ft | 485 kts | 213° |
| 2026-05-08 00:16 | 39.78963 | -112.74317 | 28469 ft | 484 kts | 213° |
| 2026-05-08 00:16 | 39.75998 | -112.76384 | 28934 ft | 483 kts | 213° |
| 2026-05-08 00:16 | 39.73037 | -112.78441 | 29369 ft | 483 kts | 213° |
| 2026-05-08 00:16 | 39.70075 | -112.80498 | 29779 ft | 483 kts | 212° |
| 2026-05-08 00:17 | 39.67010 | -112.82316 | 30154 ft | 487 kts | 204° |
| 2026-05-08 00:17 | 39.63783 | -112.83667 | 30514 ft | 488 kts | 201° |
| 2026-05-08 00:17 | 39.60527 | -112.84952 | 30883 ft | 487 kts | 200° |
| 2026-05-08 00:17 | 39.57286 | -112.86227 | 31256 ft | 486 kts | 200° |
| 2026-05-08 00:18 | 39.54052 | -112.87505 | 31623 ft | 485 kts | 201° |
| 2026-05-08 00:18 | 39.50825 | -112.88788 | 31963 ft | 484 kts | 201° |
| 2026-05-08 00:18 | 39.47610 | -112.90069 | 32295 ft | 484 kts | 201° |
| 2026-05-08 00:18 | 39.44393 | -112.91340 | 32606 ft | 483 kts | 201° |
| 2026-05-08 00:19 | 39.41185 | -112.92616 | 32946 ft | 482 kts | 201° |
| 2026-05-08 00:19 | 39.38025 | -112.93867 | 33253 ft | 481 kts | 201° |
| 2026-05-08 00:19 | 39.34827 | -112.95129 | 33539 ft | 480 kts | 201° |
| 2026-05-08 00:19 | 39.31627 | -112.96401 | 33830 ft | 480 kts | 201° |
| 2026-05-08 00:20 | 39.28445 | -112.97659 | 33934 ft | 479 kts | 201° |
| 2026-05-08 00:20 | 39.25262 | -112.98913 | 33931 ft | 478 kts | 201° |
| 2026-05-08 00:20 | 39.18899 | -113.01424 | 33899 ft | 477 kts | 200° |
| 2026-05-08 00:21 | 39.12553 | -113.03932 | 33897 ft | 478 kts | 200° |
| 2026-05-08 00:21 | 39.06196 | -113.06429 | 33895 ft | 478 kts | 200° |
| 2026-05-08 00:22 | 38.99837 | -113.08924 | 33894 ft | 478 kts | 200° |
| 2026-05-08 00:22 | 38.93480 | -113.11410 | 33886 ft | 477 kts | 200° |
| 2026-05-08 00:23 | 38.87171 | -113.13875 | 33888 ft | 466 kts | 200° |
| 2026-05-08 00:23 | 38.80911 | -113.16319 | 33901 ft | 476 kts | 200° |
| 2026-05-08 00:24 | 38.74498 | -113.18822 | 33904 ft | 487 kts | 199° |
| 2026-05-08 00:24 | 38.67961 | -113.21361 | 33906 ft | 492 kts | 199° |
| 2026-05-08 00:25 | 38.61453 | -113.23877 | 33954 ft | 492 kts | 199° |
| 2026-05-08 00:25 | 38.54903 | -113.26415 | 33969 ft | 492 kts | 199° |
| 2026-05-08 00:26 | 38.48345 | -113.28936 | 33972 ft | 493 kts | 199° |
| 2026-05-08 00:26 | 38.41784 | -113.31476 | 33968 ft | 493 kts | 199° |
| 2026-05-08 00:27 | 38.35242 | -113.34009 | 33954 ft | 493 kts | 199° |
| 2026-05-08 00:27 | 38.28668 | -113.36529 | 33935 ft | 493 kts | 199° |
| 2026-05-08 00:28 | 38.22097 | -113.39049 | 33904 ft | 493 kts | 199° |
| 2026-05-08 00:28 | 38.15522 | -113.41570 | 33905 ft | 493 kts | 199° |
| 2026-05-08 00:29 | 38.08953 | -113.44074 | 33897 ft | 493 kts | 199° |
| 2026-05-08 00:29 | 38.02386 | -113.46582 | 33897 ft | 492 kts | 199° |
| 2026-05-08 00:30 | 37.95819 | -113.49075 | 33899 ft | 493 kts | 199° |
| 2026-05-08 00:30 | 37.89346 | -113.51746 | 33901 ft | 492 kts | 201° |
| 2026-05-08 00:31 | 37.82867 | -113.54571 | 33899 ft | 492 kts | 201° |
| 2026-05-08 00:31 | 37.76405 | -113.57398 | 33898 ft | 491 kts | 201° |
| 2026-05-08 00:32 | 37.69941 | -113.60202 | 33902 ft | 491 kts | 200° |
| 2026-05-08 00:32 | 37.63470 | -113.62997 | 33904 ft | 491 kts | 200° |
| 2026-05-08 00:33 | 37.57009 | -113.65787 | 33894 ft | 491 kts | 200° |
| 2026-05-08 00:33 | 37.50556 | -113.68573 | 33897 ft | 490 kts | 200° |
| 2026-05-08 00:34 | 37.44119 | -113.71346 | 33891 ft | 489 kts | 200° |
| 2026-05-08 00:34 | 37.37666 | -113.74111 | 33888 ft | 490 kts | 200° |
| 2026-05-08 00:35 | 37.31219 | -113.76876 | 33883 ft | 489 kts | 200° |
| 2026-05-08 00:35 | 37.24768 | -113.79640 | 33882 ft | 490 kts | 200° |
| 2026-05-08 00:36 | 37.18309 | -113.82403 | 33885 ft | 490 kts | 200° |
| 2026-05-08 00:36 | 37.11854 | -113.85158 | 33883 ft | 490 kts | 200° |
| 2026-05-08 00:37 | 37.05381 | -113.87915 | 33877 ft | 494 kts | 200° |
| 2026-05-08 00:38 | 36.95638 | -113.92072 | 33863 ft | 496 kts | 200° |
| 2026-05-08 00:38 | 36.89104 | -113.94841 | 33852 ft | 496 kts | 200° |
| 2026-05-08 00:39 | 36.82593 | -113.97602 | 33848 ft | 495 kts | 199° |
| 2026-05-08 00:39 | 36.76103 | -114.00354 | 33851 ft | 492 kts | 199° |
| 2026-05-08 00:40 | 36.69620 | -114.03092 | 33835 ft | 492 kts | 199° |
| 2026-05-08 00:40 | 36.63130 | -114.05828 | 33832 ft | 492 kts | 199° |
| 2026-05-08 00:41 | 36.56639 | -114.08553 | 33827 ft | 493 kts | 199° |
| 2026-05-08 00:41 | 36.51232 | -114.10818 | 33830 ft | 494 kts | 199° |
| 2026-05-08 00:42 | 36.44719 | -114.13546 | 33816 ft | 494 kts | 199° |
| 2026-05-08 00:42 | 36.38207 | -114.16274 | 33816 ft | 494 kts | 199° |
| 2026-05-08 00:43 | 36.31696 | -114.18991 | 33811 ft | 493 kts | 199° |
| 2026-05-08 00:43 | 36.25193 | -114.21690 | 33813 ft | 493 kts | 199° |
| 2026-05-08 00:44 | 36.18678 | -114.24404 | 33818 ft | 493 kts | 199° |
| 2026-05-08 00:44 | 36.12183 | -114.27135 | 33800 ft | 493 kts | 201° |
| 2026-05-08 00:44 | 36.09102 | -114.28977 | 33808 ft | 492 kts | 213° |
| 2026-05-08 00:45 | 36.06399 | -114.31551 | 33809 ft | 490 kts | 225° |
| 2026-05-08 00:45 | 36.01851 | -114.37785 | 33817 ft | 489 kts | 231° |
| 2026-05-08 00:46 | 35.97366 | -114.44102 | 33798 ft | 489 kts | 230° |
| 2026-05-08 00:46 | 35.92836 | -114.50366 | 33823 ft | 489 kts | 230° |
| 2026-05-08 00:47 | 35.88298 | -114.56611 | 33838 ft | 489 kts | 230° |
| 2026-05-08 00:47 | 35.83763 | -114.62857 | 33811 ft | 489 kts | 230° |
| 2026-05-08 00:48 | 35.79218 | -114.69105 | 33862 ft | 489 kts | 230° |
| 2026-05-08 00:48 | 35.74678 | -114.75331 | 33863 ft | 489 kts | 230° |
| 2026-05-08 00:49 | 35.70127 | -114.81553 | 33896 ft | 489 kts | 230° |
| 2026-05-08 00:49 | 35.65575 | -114.87769 | 33899 ft | 489 kts | 230° |
| 2026-05-08 00:50 | 35.61064 | -114.93952 | 33899 ft | 489 kts | 230° |
| 2026-05-08 00:50 | 35.56526 | -115.00161 | 33890 ft | 489 kts | 230° |
| 2026-05-08 00:51 | 35.51839 | -115.06208 | 33900 ft | 490 kts | 221° |
| 2026-05-08 00:51 | 35.49017 | -115.08554 | 33906 ft | 492 kts | 208° |
| 2026-05-08 00:51 | 35.45859 | -115.10176 | 33907 ft | 492 kts | 199° |
| 2026-05-08 00:52 | 35.39358 | -115.12822 | 33901 ft | 493 kts | 198° |
| 2026-05-08 00:52 | 35.32856 | -115.15489 | 33913 ft | 493 kts | 199° |
| 2026-05-08 00:53 | 35.26361 | -115.18198 | 33907 ft | 493 kts | 199° |
| 2026-05-08 00:53 | 35.19865 | -115.20904 | 33905 ft | 493 kts | 199° |
| 2026-05-08 00:54 | 35.13364 | -115.23506 | 33891 ft | 492 kts | 194° |
| 2026-05-08 00:54 | 35.06684 | -115.25351 | 33890 ft | 491 kts | 192° |
| 2026-05-08 00:55 | 35.00003 | -115.27143 | 33885 ft | 491 kts | 192° |
| 2026-05-08 00:55 | 34.93325 | -115.28951 | 33876 ft | 492 kts | 192° |
| 2026-05-08 00:56 | 34.86645 | -115.30771 | 33876 ft | 492 kts | 192° |
| 2026-05-08 00:56 | 34.79965 | -115.32564 | 33860 ft | 491 kts | 192° |
| 2026-05-08 00:57 | 34.73430 | -115.34988 | 33844 ft | 494 kts | 198° |
| 2026-05-08 00:57 | 34.66916 | -115.37658 | 33844 ft | 492 kts | 198° |
| 2026-05-08 00:57 | 34.63716 | -115.38964 | 33825 ft | 481 kts | 198° |
| 2026-05-08 00:58 | 34.60589 | -115.40236 | 33828 ft | 479 kts | 198° |
| 2026-05-08 00:58 | 34.54278 | -115.42801 | 33821 ft | 478 kts | 198° |
| 2026-05-08 00:59 | 34.47970 | -115.45366 | 33823 ft | 478 kts | 198° |
| 2026-05-08 00:59 | 34.41657 | -115.47929 | 33827 ft | 479 kts | 198° |
| 2026-05-08 01:00 | 34.35451 | -115.50859 | 33820 ft | 480 kts | 208° |
| 2026-05-08 01:00 | 34.29723 | -115.55031 | 33834 ft | 480 kts | 212° |
| 2026-05-08 01:01 | 34.24044 | -115.59285 | 33832 ft | 480 kts | 212° |
| 2026-05-08 01:01 | 34.18104 | -115.62948 | 33843 ft | 480 kts | 201° |
| 2026-05-08 01:02 | 34.11901 | -115.65856 | 33856 ft | 475 kts | 201° |
| 2026-05-08 01:02 | 34.05792 | -115.68715 | 33853 ft | 466 kts | 201° |
| 2026-05-08 01:03 | 33.99694 | -115.71587 | 33865 ft | 474 kts | 201° |
| 2026-05-08 01:03 | 33.93544 | -115.74482 | 33862 ft | 475 kts | 201° |
| 2026-05-08 01:03 | 33.90475 | -115.75937 | 33711 ft | 472 kts | 202° |
| 2026-05-08 01:04 | 33.87420 | -115.77438 | 33315 ft | 476 kts | 202° |
| 2026-05-08 01:04 | 33.84347 | -115.78961 | 33017 ft | 479 kts | 202° |
| 2026-05-08 01:04 | 33.81262 | -115.80484 | 32736 ft | 480 kts | 202° |
| 2026-05-08 01:04 | 33.78210 | -115.81980 | 32331 ft | 479 kts | 202° |
| 2026-05-08 01:05 | 33.75115 | -115.83481 | 31606 ft | 479 kts | 201° |
| 2026-05-08 01:05 | 33.72012 | -115.84933 | 30821 ft | 480 kts | 201° |
| 2026-05-08 01:05 | 33.68894 | -115.86377 | 30034 ft | 480 kts | 201° |
| 2026-05-08 01:05 | 33.65776 | -115.87824 | 29139 ft | 480 kts | 201° |
| 2026-05-08 01:06 | 33.62661 | -115.89275 | 28332 ft | 480 kts | 201° |
| 2026-05-08 01:06 | 33.59558 | -115.90727 | 27586 ft | 477 kts | 201° |
| 2026-05-08 01:06 | 33.56474 | -115.92172 | 26884 ft | 474 kts | 201° |
| 2026-05-08 01:06 | 33.53495 | -115.93843 | 26175 ft | 472 kts | 211° |
| 2026-05-08 01:07 | 33.50866 | -115.96159 | 25490 ft | 468 kts | 224° |
| 2026-05-08 01:07 | 33.48734 | -115.99064 | 24847 ft | 462 kts | 236° |
| 2026-05-08 01:07 | 33.46916 | -116.02205 | 24252 ft | 457 kts | 238° |
| 2026-05-08 01:07 | 33.45140 | -116.05347 | 23650 ft | 454 kts | 237° |
| 2026-05-08 01:08 | 33.43367 | -116.08458 | 23013 ft | 450 kts | 237° |
| 2026-05-08 01:08 | 33.41595 | -116.11528 | 22371 ft | 446 kts | 237° |
| 2026-05-08 01:08 | 33.39834 | -116.14566 | 21772 ft | 441 kts | 237° |
| 2026-05-08 01:08 | 33.38091 | -116.17566 | 21195 ft | 437 kts | 237° |
| 2026-05-08 01:09 | 33.36365 | -116.20532 | 20639 ft | 432 kts | 237° |
| 2026-05-08 01:09 | 33.34572 | -116.23388 | 20095 ft | 427 kts | 229° |
| 2026-05-08 01:09 | 33.32370 | -116.25736 | 19603 ft | 423 kts | 214° |
| 2026-05-08 01:09 | 33.29818 | -116.27446 | 19108 ft | 419 kts | 206° |
| 2026-05-08 01:10 | 33.27201 | -116.28948 | 18602 ft | 416 kts | 205° |
| 2026-05-08 01:10 | 33.24587 | -116.30429 | 18075 ft | 415 kts | 205° |
| 2026-05-08 01:10 | 33.21989 | -116.31925 | 17482 ft | 415 kts | 205° |
| 2026-05-08 01:10 | 33.19395 | -116.33436 | 16921 ft | 414 kts | 205° |
| 2026-05-08 01:11 | 33.16809 | -116.34949 | 16381 ft | 413 kts | 205° |
| 2026-05-08 01:11 | 33.14230 | -116.36459 | 15862 ft | 412 kts | 205° |
| 2026-05-08 01:11 | 33.11656 | -116.37962 | 15341 ft | 411 kts | 205° |
| 2026-05-08 01:11 | 33.09121 | -116.39441 | 14899 ft | 410 kts | 205° |
| 2026-05-08 01:12 | 33.06527 | -116.40950 | 14385 ft | 409 kts | 205° |
| 2026-05-08 01:12 | 33.03974 | -116.42437 | 13889 ft | 408 kts | 205° |
| 2026-05-08 01:12 | 33.01430 | -116.43928 | 13344 ft | 407 kts | 206° |
| 2026-05-08 01:12 | 32.99109 | -116.45762 | 12879 ft | 394 kts | 220° |
| 2026-05-08 01:13 | 32.97077 | -116.47843 | 12548 ft | 376 kts | 221° |
| 2026-05-08 01:13 | 32.95148 | -116.49837 | 12216 ft | 360 kts | 221° |
| 2026-05-08 01:13 | 32.93278 | -116.51751 | 11808 ft | 349 kts | 221° |
| 2026-05-08 01:13 | 32.91457 | -116.53602 | 11314 ft | 341 kts | 221° |
| 2026-05-08 01:14 | 32.89680 | -116.55399 | 10939 ft | 329 kts | 221° |
| 2026-05-08 01:14 | 32.87964 | -116.57128 | 10619 ft | 317 kts | 221° |
| 2026-05-08 01:14 | 32.86313 | -116.58789 | 10263 ft | 307 kts | 221° |
| 2026-05-08 01:14 | 32.84698 | -116.60415 | 9772 ft | 302 kts | 221° |
| 2026-05-08 01:15 | 32.83109 | -116.62018 | 9225 ft | 298 kts | 222° |
| 2026-05-08 01:15 | 32.81534 | -116.63607 | 8697 ft | 295 kts | 222° |
| 2026-05-08 01:15 | 32.79979 | -116.65171 | 8227 ft | 292 kts | 223° |
| 2026-05-08 01:15 | 32.78432 | -116.66728 | 7990 ft | 291 kts | 223° |
| 2026-05-08 01:16 | 32.77056 | -116.68448 | 7928 ft | 284 kts | 238° |
| 2026-05-08 01:16 | 32.76047 | -116.70442 | 7547 ft | 281 kts | 244° |
| 2026-05-08 01:16 | 32.75113 | -116.72473 | 7141 ft | 280 kts | 244° |
| 2026-05-08 01:16 | 32.74177 | -116.74505 | 6734 ft | 280 kts | 244° |
| 2026-05-08 01:17 | 32.73239 | -116.76518 | 6351 ft | 278 kts | 244° |
| 2026-05-08 01:17 | 32.72304 | -116.78511 | 6039 ft | 273 kts | 244° |
| 2026-05-08 01:17 | 32.71396 | -116.80429 | 5960 ft | 259 kts | 244° |
| 2026-05-08 01:17 | 32.70597 | -116.82257 | 5940 ft | 239 kts | 251° |
| 2026-05-08 01:18 | 32.70020 | -116.84042 | 5780 ft | 227 kts | 254° |
| 2026-05-08 01:18 | 32.69492 | -116.85768 | 5436 ft | 224 kts | 254° |
| 2026-05-08 01:18 | 32.68962 | -116.87502 | 5083 ft | 224 kts | 254° |
| 2026-05-08 01:18 | 32.68438 | -116.89235 | 4768 ft | 221 kts | 255° |
| 2026-05-08 01:19 | 32.67936 | -116.90951 | 4419 ft | 219 kts | 254° |
| 2026-05-08 01:19 | 32.67452 | -116.92620 | 4319 ft | 211 kts | 256° |
| 2026-05-08 01:19 | 32.67287 | -116.94314 | 4114 ft | 206 kts | 280° |
| 2026-05-08 01:19 | 32.67653 | -116.95954 | 3855 ft | 205 kts | 289° |
| 2026-05-08 01:20 | 32.68094 | -116.97564 | 3589 ft | 205 kts | 289° |
| 2026-05-08 01:20 | 32.68516 | -116.99180 | 3333 ft | 206 kts | 287° |
| 2026-05-08 01:20 | 32.68916 | -117.00774 | 3165 ft | 192 kts | 287° |
| 2026-05-08 01:20 | 32.69282 | -117.02246 | 2958 ft | 183 kts | 287° |
| 2026-05-08 01:21 | 32.69634 | -117.03686 | 2672 ft | 178 kts | 286° |
| 2026-05-08 01:21 | 32.69978 | -117.05096 | 2481 ft | 178 kts | 286° |
| 2026-05-08 01:21 | 32.70317 | -117.06502 | 2183 ft | 175 kts | 285° |
| 2026-05-08 01:21 | 32.70641 | -117.07828 | 2015 ft | 155 kts | 286° |
| 2026-05-08 01:22 | 32.70923 | -117.08954 | 1900 ft | 138 kts | 286° |
| 2026-05-08 01:22 | 32.71183 | -117.10042 | 1706 ft | 137 kts | 285° |
| 2026-05-08 01:22 | 32.71439 | -117.11117 | 1468 ft | 135 kts | 285° |
| 2026-05-08 01:22 | 32.71703 | -117.12185 | 1271 ft | 134 kts | 285° |
| 2026-05-08 01:23 | 32.71959 | -117.13223 | 1081 ft | 129 kts | 285° |
| 2026-05-08 01:23 | 32.72210 | -117.14240 | 843 ft | 129 kts | 284° |
| 2026-05-08 01:23 | 32.72449 | -117.15258 | 641 ft | 128 kts | 284° |
| 2026-05-08 01:23 | 32.72697 | -117.16243 | 406 ft | 129 kts | 285° |
| 2026-05-08 01:24 | 32.72949 | -117.17287 | 194 ft | 130 kts | 283° |
| 2026-05-08 01:24 | 32.73207 | -117.18286 | 331 ft | 145 kts | 284° |
| 2026-05-08 01:24 | 32.73497 | -117.19555 | 1339 ft | 161 kts | 284° |
| 2026-05-08 01:24 | 32.73796 | -117.20870 | 1928 ft | 177 kts | 287° |
| 2026-05-08 01:25 | 32.74178 | -117.22410 | 2277 ft | 204 kts | 287° |
| 2026-05-08 01:25 | 32.74440 | -117.23493 | 2390 ft | 206 kts | 287° |
| 2026-05-08 01:25 | 32.74964 | -117.25657 | 2486 ft | 206 kts | 287° |
| 2026-05-08 01:25 | 32.75360 | -117.27292 | 2495 ft | 206 kts | 287° |
| 2026-05-08 01:26 | 32.75755 | -117.28935 | 2484 ft | 207 kts | 286° |
| 2026-05-08 01:26 | 32.76149 | -117.30577 | 2485 ft | 206 kts | 287° |
| 2026-05-08 01:26 | 32.76558 | -117.32209 | 2596 ft | 205 kts | 293° |
| 2026-05-08 01:26 | 32.77459 | -117.33509 | 3385 ft | 208 kts | 325° |
| 2026-05-08 01:27 | 32.78351 | -117.33957 | 3923 ft | 208 kts | 346° |
| 2026-05-08 01:27 | 32.79799 | -117.33891 | 4542 ft | 212 kts | 8° |
| 2026-05-08 01:27 | 32.81234 | -117.33484 | 4836 ft | 212 kts | 11° |
| 2026-05-08 01:27 | 32.82663 | -117.33040 | 4945 ft | 213 kts | 11° |
| 2026-05-08 01:28 | 32.84088 | -117.32509 | 4973 ft | 224 kts | 22° |
| 2026-05-08 01:28 | 32.85266 | -117.31253 | 4971 ft | 235 kts | 54° |
| 2026-05-08 01:28 | 32.85797 | -117.29410 | 4979 ft | 242 kts | 84° |
| 2026-05-08 01:28 | 32.85628 | -117.27408 | 4995 ft | 245 kts | 99° |
| 2026-05-08 01:29 | 32.85271 | -117.25455 | 5007 ft | 245 kts | 101° |
| 2026-05-08 01:29 | 32.84887 | -117.23454 | 5007 ft | 245 kts | 101° |
| 2026-05-08 01:29 | 32.84512 | -117.21506 | 5002 ft | 246 kts | 101° |
| 2026-05-08 01:29 | 32.84127 | -117.19495 | 5000 ft | 245 kts | 101° |
| 2026-05-08 01:30 | 32.83753 | -117.17550 | 4978 ft | 245 kts | 101° |
| 2026-05-08 01:30 | 32.83367 | -117.15570 | 4983 ft | 247 kts | 101° |
| 2026-05-08 01:30 | 32.82973 | -117.13581 | 4980 ft | 247 kts | 101° |
| 2026-05-08 01:30 | 32.82580 | -117.11599 | 4983 ft | 246 kts | 101° |
| 2026-05-08 01:31 | 32.82185 | -117.09616 | 4988 ft | 247 kts | 101° |
| 2026-05-08 01:31 | 32.81793 | -117.07636 | 4978 ft | 247 kts | 101° |
| 2026-05-08 01:31 | 32.81402 | -117.05645 | 4987 ft | 247 kts | 101° |
| 2026-05-08 01:31 | 32.81010 | -117.03657 | 4985 ft | 247 kts | 101° |
| 2026-05-08 01:32 | 32.80618 | -117.01663 | 4983 ft | 249 kts | 101° |
| 2026-05-08 01:32 | 32.80223 | -116.99670 | 4983 ft | 246 kts | 101° |
| 2026-05-08 01:32 | 32.79833 | -116.97691 | 4975 ft | 246 kts | 102° |
| 2026-05-08 01:32 | 32.79085 | -116.95870 | 4975 ft | 248 kts | 131° |
| 2026-05-08 01:33 | 32.77718 | -116.94652 | 4980 ft | 247 kts | 156° |
| 2026-05-08 01:33 | 32.76130 | -116.93853 | 4984 ft | 248 kts | 160° |
| 2026-05-08 01:33 | 32.74525 | -116.93110 | 4950 ft | 248 kts | 161° |
| 2026-05-08 01:33 | 32.72927 | -116.92379 | 4782 ft | 246 kts | 161° |
| 2026-05-08 01:34 | 32.71322 | -116.91716 | 4559 ft | 238 kts | 173° |
| 2026-05-08 01:34 | 32.69745 | -116.91836 | 4309 ft | 221 kts | 204° |
| 2026-05-08 01:34 | 32.68483 | -116.92743 | 4063 ft | 207 kts | 225° |
| 2026-05-08 01:34 | 32.67682 | -116.94099 | 3898 ft | 200 kts | 252° |
| 2026-05-08 01:35 | 32.67540 | -116.95697 | 3632 ft | 193 kts | 278° |
| 2026-05-08 01:35 | 32.67901 | -116.97228 | 3291 ft | 194 kts | 290° |
| 2026-05-08 01:35 | 32.68322 | -116.98703 | 3172 ft | 186 kts | 289° |
| 2026-05-08 01:35 | 32.68731 | -117.00159 | 3166 ft | 185 kts | 289° |
| 2026-05-08 01:36 | 32.69127 | -117.01607 | 3153 ft | 183 kts | 288° |
| 2026-05-08 01:36 | 32.69471 | -117.03034 | 2855 ft | 181 kts | 287° |
| 2026-05-08 01:36 | 32.69821 | -117.04496 | 2517 ft | 186 kts | 286° |
| 2026-05-08 01:36 | 32.70175 | -117.05982 | 2298 ft | 186 kts | 286° |
| 2026-05-08 01:37 | 32.70526 | -117.07407 | 2051 ft | 173 kts | 286° |
| 2026-05-08 01:37 | 32.70828 | -117.08651 | 1981 ft | 141 kts | 285° |
| 2026-05-08 01:37 | 32.71084 | -117.09747 | 1775 ft | 136 kts | 285° |
| 2026-05-08 01:37 | 32.71346 | -117.10819 | 1528 ft | 135 kts | 285° |
| 2026-05-08 01:38 | 32.71607 | -117.11882 | 1323 ft | 133 kts | 284° |
| 2026-05-08 01:38 | 32.71857 | -117.12928 | 1112 ft | 130 kts | 285° |
| 2026-05-08 01:38 | 32.72105 | -117.13954 | 904 ft | 129 kts | 284° |
| 2026-05-08 01:38 | 32.72353 | -117.14973 | 691 ft | 128 kts | 284° |
| 2026-05-08 01:39 | 32.72603 | -117.15987 | 470 ft | 129 kts | 285° |
| 2026-05-08 01:39 | 32.72871 | -117.17002 | 269 ft | 129 kts | 287° |
| 2026-05-08 01:39 | 32.73133 | -117.18012 | 69 ft | 129 kts | 284° |
| 2026-05-08 01:39 | 32.73359 | -117.18988 | 27 ft | 103 kts | 285° |
| 2026-05-08 01:40 | 32.73471 | -117.19458 | 28 ft | 37 kts | 287° |
| 2026-05-08 01:40 | 32.73531 | -117.19677 | 32 ft | 15 kts | 286° |
| 2026-05-08 01:40 | 32.73530 | -117.19772 | 32 ft | 12 kts | 249° |
| 2026-05-08 01:40 | 32.73501 | -117.19870 | 30 ft | 13 kts | 249° |
| 2026-05-08 01:41 | 32.73492 | -117.19945 | 29 ft | 7 kts | 283° |
| 2026-05-08 01:41 | 32.73507 | -117.20009 | 28 ft | 9 kts | 285° |
| 2026-05-08 01:41 | 32.73527 | -117.20092 | 28 ft | 12 kts | 287° |
| 2026-05-08 01:41 | 32.73553 | -117.20196 | 28 ft | 14 kts | 286° |
| 2026-05-08 01:42 | 32.73578 | -117.20304 | 29 ft | 13 kts | 285° |
| 2026-05-08 01:42 | 32.73596 | -117.20410 | 23 ft | 14 kts | 256° |
| 2026-05-08 01:42 | 32.73534 | -117.20490 | 22 ft | 13 kts | 219° |
| 2026-05-08 01:42 | 32.73473 | -117.20548 | 24 ft | 11 kts | 202° |
| 2026-05-08 01:43 | 32.73409 | -117.20555 | 26 ft | 8 kts | 179° |
| 2026-05-08 01:43 | 32.73363 | -117.20554 | 27 ft | 5 kts | 179° |
| 2026-05-08 01:43 | 32.73336 | -117.20544 | 28 ft | 4 kts | 124° |
| 2026-05-08 01:43 | 32.73336 | -117.20505 | 26 ft | 6 kts | 77° |
| 2026-05-08 01:44 | 32.73343 | -117.20466 | 26 ft | 0 kts | 77° |